createdAt,value
2017-08-25T00:01:24.473Z,15.80
2017-08-25T00:03:52.895Z,15.81
2017-08-25T00:06:21.359Z,15.87
2017-08-25T00:08:49.789Z,15.87
2017-08-25T00:11:18.226Z,15.90
2017-08-25T00:13:46.692Z,15.91
2017-08-25T00:16:15.167Z,15.90
2017-08-25T00:18:43.650Z,15.90
2017-08-25T00:21:12.111Z,15.92
2017-08-25T00:23:40.531Z,15.91
2017-08-25T00:26:09.097Z,15.93
2017-08-25T00:28:37.568Z,15.95
2017-08-25T00:31:06.047Z,15.97
2017-08-25T00:33:34.541Z,16.00
2017-08-25T00:36:03.007Z,16.04
2017-08-25T00:38:31.506Z,16.08
2017-08-25T00:41:00.696Z,16.10
2017-08-25T00:43:29.174Z,16.12
2017-08-25T00:45:57.600Z,16.17
2017-08-25T00:48:26.033Z,16.17
2017-08-25T00:50:54.523Z,16.20
2017-08-25T00:53:23.011Z,16.21
2017-08-25T00:55:51.498Z,16.23
2017-08-25T00:58:19.964Z,16.24
2017-08-25T01:00:48.448Z,16.24
2017-08-25T01:03:16.929Z,16.23
2017-08-25T01:05:46.146Z,16.22
2017-08-25T01:08:14.602Z,16.22
2017-08-25T01:10:43.102Z,16.21
2017-08-25T01:13:11.576Z,16.22
2017-08-25T01:15:40.017Z,16.17
2017-08-25T01:18:08.537Z,16.17
2017-08-25T01:20:36.967Z,16.11
2017-08-25T01:23:05.425Z,16.11
2017-08-25T01:25:33.869Z,16.07
2017-08-25T01:28:02.360Z,16.04
2017-08-25T01:30:30.861Z,15.95
2017-08-25T01:32:59.345Z,15.95
2017-08-25T01:35:27.823Z,15.87
2017-08-25T01:37:56.282Z,15.84
2017-08-25T01:40:24.784Z,15.80
2017-08-25T01:42:53.225Z,15.78
2017-08-25T01:45:22.535Z,15.68
2017-08-25T01:47:51.036Z,15.62
2017-08-25T01:50:19.520Z,15.58
2017-08-25T01:52:47.958Z,15.52
2017-08-25T01:55:16.494Z,15.42
2017-08-25T01:57:44.969Z,15.38
2017-08-25T02:00:13.449Z,15.33
2017-08-25T02:02:41.945Z,15.35
2017-08-25T02:05:10.422Z,15.31
2017-08-25T02:07:38.869Z,15.27
2017-08-25T02:10:07.375Z,15.24
2017-08-25T02:12:35.855Z,15.20
2017-08-25T02:15:04.305Z,15.15
2017-08-25T02:17:32.829Z,15.01
2017-08-25T02:20:01.304Z,14.99
2017-08-25T02:22:29.784Z,15.00
2017-08-25T02:24:58.246Z,15.00
2017-08-25T02:27:27.478Z,14.96
2017-08-25T02:29:55.947Z,14.87
2017-08-25T02:32:24.380Z,14.82
2017-08-25T02:34:52.846Z,14.86
2017-08-25T02:37:21.291Z,14.80
2017-08-25T02:39:49.788Z,14.74
2017-08-25T02:42:18.224Z,14.75
2017-08-25T02:44:46.740Z,14.73
2017-08-25T02:47:15.235Z,14.75
2017-08-25T02:49:43.665Z,14.73
2017-08-25T02:52:12.116Z,14.76
2017-08-25T02:54:40.568Z,14.81
2017-08-25T02:57:09.055Z,14.81
2017-08-25T02:59:37.529Z,14.83
2017-08-25T03:02:05.976Z,14.85
2017-08-25T03:04:34.497Z,14.85
2017-08-25T03:07:02.940Z,14.85
2017-08-25T03:09:31.461Z,14.81
2017-08-25T03:11:59.921Z,14.81
2017-08-25T03:14:28.357Z,14.81
2017-08-25T03:16:57.013Z,14.82
2017-08-25T03:19:25.447Z,14.82
2017-08-25T03:21:53.904Z,14.81
2017-08-25T03:24:22.337Z,14.80
2017-08-25T03:26:50.827Z,14.81
2017-08-25T03:29:19.318Z,14.79
2017-08-25T03:31:48.021Z,14.78
2017-08-25T03:34:16.488Z,14.75
2017-08-25T03:36:44.933Z,14.75
2017-08-25T03:39:13.443Z,14.74
2017-08-25T03:41:41.933Z,14.73
2017-08-25T03:44:10.412Z,14.73
2017-08-25T03:46:38.892Z,14.70
2017-08-25T03:49:07.381Z,14.69
2017-08-25T03:51:35.808Z,14.66
2017-08-25T03:54:04.267Z,14.66
2017-08-25T03:56:32.725Z,14.65
2017-08-25T03:59:01.186Z,14.69
2017-08-25T04:01:29.676Z,14.68
2017-08-25T04:03:58.124Z,14.67
2017-08-25T04:06:27.333Z,14.69
2017-08-25T04:08:55.844Z,14.68
2017-08-25T04:11:24.267Z,14.69
2017-08-25T04:13:52.804Z,14.69
2017-08-25T04:16:21.228Z,14.69
2017-08-25T04:18:49.684Z,14.73
2017-08-25T04:21:18.124Z,14.73
2017-08-25T04:23:46.580Z,14.77
2017-08-25T04:26:15.025Z,14.80
2017-08-25T04:28:43.542Z,14.82
2017-08-25T04:31:12.086Z,14.88
2017-08-25T04:33:40.551Z,14.89
2017-08-25T04:36:09.051Z,14.91
2017-08-25T04:38:37.524Z,14.91
2017-08-25T04:41:06.010Z,14.98
2017-08-25T04:43:34.441Z,14.99
2017-08-25T04:46:02.978Z,15.02
2017-08-25T04:48:31.462Z,15.04
2017-08-25T04:50:59.932Z,15.10
2017-08-25T04:53:28.421Z,15.12
2017-08-25T04:55:56.895Z,15.12
2017-08-25T04:58:25.391Z,15.14
2017-08-25T05:00:53.859Z,15.15
2017-08-25T05:03:22.297Z,15.18
2017-08-25T05:05:50.834Z,15.20
2017-08-25T05:08:19.323Z,15.28
2017-08-25T05:10:47.791Z,15.40
2017-08-25T05:13:16.277Z,15.39
2017-08-25T05:15:44.767Z,15.37
2017-08-25T05:18:13.232Z,15.44
2017-08-25T05:20:41.716Z,15.53
2017-08-25T05:23:10.152Z,15.59
2017-08-25T05:25:38.695Z,15.58
2017-08-25T05:28:07.137Z,15.65
2017-08-25T05:30:35.639Z,15.74
2017-08-25T05:33:04.064Z,15.79
2017-08-25T05:35:32.517Z,15.89
2017-08-25T05:38:00.989Z,15.97
2017-08-25T05:40:29.445Z,16.06
2017-08-25T05:42:57.947Z,16.07
2017-08-25T05:45:26.449Z,16.14
2017-08-25T05:47:54.896Z,16.16
2017-08-25T05:50:23.395Z,16.17
2017-08-25T05:52:51.847Z,16.24
2017-08-25T05:55:20.380Z,16.32
2017-08-25T05:57:48.846Z,16.39
2017-08-25T06:00:17.329Z,16.41
2017-08-25T06:02:45.818Z,16.44
2017-08-25T06:05:14.287Z,16.49
2017-08-25T06:07:42.771Z,16.57
2017-08-25T06:10:11.252Z,16.61
2017-08-25T06:12:39.735Z,16.66
2017-08-25T06:15:08.159Z,16.75
2017-08-25T06:17:36.699Z,16.79
2017-08-25T06:20:05.191Z,16.80
2017-08-25T06:22:33.644Z,16.76
2017-08-25T06:25:02.094Z,16.83
2017-08-25T06:27:30.632Z,16.92
2017-08-25T06:29:59.121Z,17.07
2017-08-25T06:32:27.704Z,17.23
2017-08-25T06:34:56.136Z,17.35
2017-08-25T06:37:24.656Z,17.36
2017-08-25T06:39:53.149Z,17.49
2017-08-25T06:42:21.592Z,17.55
2017-08-25T06:44:50.099Z,17.54
2017-08-25T06:47:18.601Z,17.65
2017-08-25T06:49:47.068Z,17.75
2017-08-25T06:52:15.491Z,17.75
2017-08-25T06:54:44.042Z,17.77
2017-08-25T06:57:12.476Z,17.87
2017-08-25T06:59:40.998Z,17.95
2017-08-25T07:02:09.442Z,17.97
2017-08-25T07:04:37.956Z,17.95
2017-08-25T07:07:06.457Z,18.05
2017-08-25T07:09:34.903Z,18.11
2017-08-25T07:12:03.414Z,18.20
2017-08-25T07:14:31.893Z,18.30
2017-08-25T07:17:00.381Z,18.28
2017-08-25T07:19:28.862Z,18.31
2017-08-25T07:21:57.332Z,18.29
2017-08-25T07:24:25.804Z,18.41
2017-08-25T07:26:54.409Z,18.57
2017-08-25T07:29:22.875Z,18.61
2017-08-25T07:31:51.364Z,18.73
2017-08-25T07:34:19.862Z,18.83
2017-08-25T07:36:48.327Z,18.95
2017-08-25T07:39:16.786Z,19.01
2017-08-25T07:41:45.230Z,18.84
2017-08-25T07:44:13.789Z,19.08
2017-08-25T07:46:42.236Z,19.15
2017-08-25T07:49:10.747Z,19.17
2017-08-25T07:51:39.234Z,19.16
2017-08-25T07:54:07.711Z,19.36
2017-08-25T07:56:36.184Z,19.42
2017-08-25T07:59:04.663Z,19.33
2017-08-25T08:01:33.116Z,19.59
2017-08-25T08:04:01.912Z,19.68
2017-08-25T08:06:30.383Z,19.63
2017-08-25T08:08:59.575Z,19.68
2017-08-25T08:11:28.037Z,19.61
2017-08-25T08:13:56.469Z,19.65
2017-08-25T08:16:24.970Z,19.55
2017-08-25T08:18:53.454Z,19.49
2017-08-25T08:21:21.941Z,19.76
2017-08-25T08:23:50.380Z,19.99
2017-08-25T08:26:18.891Z,20.12
2017-08-25T08:28:47.562Z,20.10
2017-08-25T08:31:16.068Z,20.27
2017-08-25T08:33:44.540Z,20.30
2017-08-25T08:36:18.553Z,20.40
2017-08-25T08:38:47.044Z,20.40
2017-08-25T08:41:15.526Z,20.47
2017-08-25T08:43:43.989Z,20.89
2017-08-25T08:46:12.490Z,20.88
2017-08-25T08:48:40.965Z,20.76
2017-08-25T08:51:09.444Z,20.74
2017-08-25T08:53:37.956Z,20.60
2017-08-25T08:56:06.405Z,20.50
2017-08-25T08:58:34.861Z,20.57
2017-08-25T09:01:03.381Z,20.65
2017-08-25T09:03:31.851Z,21.00
2017-08-25T09:06:05.812Z,20.88
2017-08-25T09:08:34.260Z,21.27
2017-08-25T09:11:02.691Z,21.44
2017-08-25T09:13:31.149Z,21.46
2017-08-25T09:15:59.697Z,21.24
2017-08-25T09:18:28.172Z,21.41
2017-08-25T09:20:56.605Z,21.49
2017-08-25T09:23:25.061Z,21.90
2017-08-25T09:25:53.525Z,21.56
2017-08-25T09:28:22.100Z,21.27
2017-08-25T09:30:50.598Z,21.08
2017-08-25T09:33:19.410Z,21.18
2017-08-25T09:35:47.966Z,21.24
2017-08-25T09:38:16.447Z,20.94
2017-08-25T09:40:44.920Z,20.78
2017-08-25T09:43:13.353Z,20.93
2017-08-25T09:45:41.795Z,21.04
2017-08-25T09:48:10.275Z,21.28
2017-08-25T09:50:38.755Z,21.55
2017-08-25T09:53:07.228Z,21.79
2017-08-25T09:55:35.672Z,21.77
2017-08-25T09:58:04.107Z,21.64
2017-08-25T10:00:32.569Z,22.06
2017-08-25T10:03:01.005Z,22.18
2017-08-25T10:05:29.451Z,22.08
2017-08-25T10:07:57.928Z,22.26
2017-08-25T10:10:26.399Z,21.99
2017-08-25T10:12:54.819Z,21.79
2017-08-25T10:15:23.402Z,21.49
2017-08-25T10:17:51.961Z,21.23
2017-08-25T10:20:20.437Z,20.85
2017-08-25T10:22:48.917Z,20.72
2017-08-25T10:25:17.402Z,20.57
2017-08-25T10:27:45.871Z,20.68
2017-08-25T10:30:14.362Z,21.09
2017-08-25T10:32:42.835Z,21.38
2017-08-25T10:35:29.076Z,21.37
2017-08-25T10:38:15.343Z,21.72
2017-08-25T10:41:01.528Z,21.90
2017-08-25T10:43:47.841Z,22.21
2017-08-25T10:46:16.311Z,22.47
2017-08-25T10:48:44.809Z,22.33
2017-08-25T10:51:13.275Z,22.13
2017-08-25T10:53:41.701Z,22.38
2017-08-25T10:56:10.179Z,22.34
2017-08-25T10:58:38.729Z,22.45
2017-08-25T11:01:07.166Z,22.23
2017-08-25T11:03:35.698Z,22.49
2017-08-25T11:06:04.178Z,22.65
2017-08-25T11:08:32.648Z,22.63
2017-08-25T11:11:01.141Z,22.60
2017-08-25T11:13:29.622Z,22.77
2017-08-25T11:15:58.094Z,22.72
2017-08-25T11:18:26.551Z,22.97
2017-08-25T11:20:55.884Z,23.01
2017-08-25T11:23:24.327Z,23.28
2017-08-25T11:25:52.839Z,23.25
2017-08-25T11:28:21.325Z,23.43
2017-08-25T11:30:49.768Z,23.44
2017-08-25T11:33:18.229Z,23.17
2017-08-25T11:35:46.657Z,23.10
2017-08-25T11:38:15.166Z,22.85
2017-08-25T11:40:43.600Z,23.01
2017-08-25T11:43:12.121Z,23.04
2017-08-25T11:45:40.588Z,23.07
2017-08-25T11:48:09.080Z,23.33
2017-08-25T11:50:37.513Z,22.95
2017-08-25T11:53:05.959Z,23.01
2017-08-25T11:55:34.397Z,23.24
2017-08-25T11:58:02.913Z,23.02
2017-08-25T12:00:31.360Z,22.90
2017-08-25T12:02:59.868Z,22.79
2017-08-25T12:05:28.357Z,22.95
2017-08-25T12:07:57.245Z,22.93
2017-08-25T12:10:25.729Z,23.34
2017-08-25T12:12:54.280Z,23.74
2017-08-25T12:15:22.787Z,24.07
2017-08-25T12:17:51.212Z,24.02
2017-08-25T12:20:19.752Z,24.28
2017-08-25T12:22:48.246Z,23.79
2017-08-25T12:25:16.715Z,23.70
2017-08-25T12:27:45.211Z,23.52
2017-08-25T12:30:13.676Z,23.41
2017-08-25T12:32:42.173Z,23.20
2017-08-25T12:35:10.633Z,23.17
2017-08-25T12:37:39.129Z,23.20
2017-08-25T12:40:07.619Z,23.26
2017-08-25T12:42:36.166Z,23.30
2017-08-25T12:45:04.686Z,23.22
2017-08-25T12:47:33.160Z,23.66
2017-08-25T12:50:01.656Z,23.80
2017-08-25T12:52:30.131Z,23.76
2017-08-25T12:54:58.593Z,23.61
2017-08-25T12:57:27.095Z,23.52
2017-08-25T12:59:55.582Z,23.36
2017-08-25T13:02:24.059Z,23.29
2017-08-25T13:04:52.542Z,23.04
2017-08-25T13:07:20.985Z,23.06
2017-08-25T13:09:49.450Z,22.78
2017-08-25T13:12:17.883Z,22.81
2017-08-25T13:14:46.356Z,22.72
2017-08-25T13:17:14.853Z,22.93
2017-08-25T13:19:43.320Z,22.94
2017-08-25T13:22:11.818Z,23.20
2017-08-25T13:24:40.288Z,23.29
2017-08-25T13:27:08.725Z,23.42
2017-08-25T13:29:37.247Z,23.51
2017-08-25T13:32:05.745Z,23.42
2017-08-25T13:34:34.227Z,23.45
2017-08-25T13:37:02.660Z,23.47
2017-08-25T13:39:31.092Z,23.37
2017-08-25T13:41:59.667Z,23.46
2017-08-25T13:44:28.109Z,23.41
2017-08-25T13:46:56.631Z,23.56
2017-08-25T13:49:25.104Z,23.38
2017-08-25T13:51:53.556Z,23.29
2017-08-25T13:54:21.992Z,22.98
2017-08-25T13:56:50.439Z,23.14
2017-08-25T13:59:18.933Z,23.12
2017-08-25T14:01:47.412Z,23.20
2017-08-25T14:04:15.903Z,23.04
2017-08-25T14:06:44.381Z,23.08
2017-08-25T14:09:12.818Z,23.21
2017-08-25T14:11:41.350Z,23.40
2017-08-25T14:14:09.824Z,23.31
2017-08-25T14:16:38.320Z,23.27
2017-08-25T14:19:06.784Z,23.30
2017-08-25T14:21:35.263Z,23.42
2017-08-25T14:24:03.702Z,23.61
2017-08-25T14:26:32.228Z,23.95
2017-08-25T14:29:00.652Z,23.87
2017-08-25T14:31:29.107Z,23.60
2017-08-25T14:33:57.572Z,23.34
2017-08-25T14:36:26.066Z,23.51
2017-08-25T14:38:54.525Z,23.50
2017-08-25T14:41:23.020Z,23.52
2017-08-25T14:43:51.513Z,23.62
2017-08-25T14:46:19.984Z,23.49
2017-08-25T14:48:48.463Z,23.68
2017-08-25T14:51:16.902Z,23.74
2017-08-25T14:53:45.348Z,23.65
2017-08-25T14:56:13.912Z,23.44
2017-08-25T14:58:42.391Z,23.23
2017-08-25T15:01:10.876Z,23.26
2017-08-25T15:03:39.355Z,23.29
2017-08-25T15:06:07.790Z,23.46
2017-08-25T15:08:36.319Z,23.54
2017-08-25T15:11:04.757Z,23.76
2017-08-25T15:13:33.305Z,23.76
2017-08-25T15:16:01.778Z,23.39
2017-08-25T15:18:30.240Z,23.33
2017-08-25T15:20:58.677Z,23.33
2017-08-25T15:23:27.212Z,23.47
2017-08-25T15:25:55.696Z,23.58
2017-08-25T15:28:24.175Z,23.75
2017-08-25T15:30:52.670Z,23.49
2017-08-25T15:33:21.158Z,23.59
2017-08-25T15:35:49.640Z,23.55
2017-08-25T15:38:18.121Z,23.33
2017-08-25T15:40:46.562Z,23.26
2017-08-25T15:43:15.008Z,23.06
2017-08-25T15:45:43.557Z,23.20
2017-08-25T15:48:11.993Z,23.25
2017-08-25T15:50:40.524Z,23.29
2017-08-25T15:53:08.956Z,23.24
2017-08-25T15:55:37.411Z,23.40
2017-08-25T15:58:05.869Z,23.19
2017-08-25T16:00:34.350Z,22.92
2017-08-25T16:03:02.824Z,22.94
2017-08-25T16:05:31.281Z,22.77
2017-08-25T16:07:59.725Z,22.80
2017-08-25T16:10:28.278Z,22.79
2017-08-25T16:12:56.757Z,22.68
2017-08-25T16:15:25.207Z,22.87
2017-08-25T16:17:53.721Z,22.79
2017-08-25T16:20:22.197Z,22.91
2017-08-25T16:22:50.624Z,22.93
2017-08-25T16:25:19.065Z,23.05
2017-08-25T16:27:47.539Z,23.00
2017-08-25T16:30:16.020Z,22.96
2017-08-25T16:32:44.448Z,22.97
2017-08-25T16:35:12.984Z,22.92
2017-08-25T16:37:41.479Z,22.88
2017-08-25T16:40:10.037Z,22.70
2017-08-25T16:42:38.470Z,22.33
2017-08-25T16:45:06.933Z,22.28
2017-08-25T16:47:35.404Z,22.39
2017-08-25T16:50:03.895Z,22.64
2017-08-25T16:52:32.347Z,22.51
2017-08-25T16:55:00.842Z,22.71
2017-08-25T16:57:29.338Z,22.80
2017-08-25T16:59:57.767Z,22.97
2017-08-25T17:02:26.298Z,22.97
2017-08-25T17:04:54.737Z,23.15
2017-08-25T17:07:23.262Z,23.24
2017-08-25T17:09:51.709Z,23.21
2017-08-25T17:12:20.227Z,23.18
2017-08-25T17:14:48.654Z,23.21
2017-08-25T17:17:17.121Z,23.08
2017-08-25T17:19:45.655Z,22.73
2017-08-25T17:22:14.139Z,22.40
2017-08-25T17:24:42.639Z,22.13
2017-08-25T17:27:11.114Z,21.99
2017-08-25T17:29:39.597Z,21.79
2017-08-25T17:32:08.075Z,21.49
2017-08-25T17:34:36.511Z,21.41
2017-08-25T17:37:05.048Z,21.24
2017-08-25T17:39:33.517Z,21.07
2017-08-25T17:42:01.999Z,21.02
2017-08-25T17:44:30.463Z,20.88
2017-08-25T17:46:58.895Z,20.77
2017-08-25T17:49:27.352Z,20.68
2017-08-25T17:51:55.810Z,20.57
2017-08-25T17:54:24.303Z,20.47
2017-08-25T17:56:52.797Z,20.36
2017-08-25T17:59:21.278Z,20.29
2017-08-25T18:01:49.771Z,20.16
2017-08-25T18:04:18.332Z,20.04
2017-08-25T18:06:46.764Z,19.92
2017-08-25T18:09:15.295Z,19.82
2017-08-25T18:11:43.780Z,19.76
2017-08-25T18:14:12.219Z,19.68
2017-08-25T18:16:40.744Z,19.63
2017-08-25T18:19:09.186Z,19.58
2017-08-25T18:21:37.708Z,19.53
2017-08-25T18:24:06.197Z,19.42
2017-08-25T18:26:34.687Z,19.43
2017-08-25T18:29:03.155Z,19.34
2017-08-25T18:31:31.646Z,19.32
2017-08-25T18:34:00.134Z,19.27
2017-08-25T18:36:28.600Z,19.17
2017-08-25T18:38:57.046Z,19.07
2017-08-25T18:41:25.574Z,18.98
2017-08-25T18:43:54.061Z,18.87
2017-08-25T18:46:22.645Z,18.87
2017-08-25T18:48:51.085Z,18.88
2017-08-25T18:51:19.531Z,18.81
2017-08-25T18:53:48.077Z,18.67
2017-08-25T18:56:16.567Z,18.62
2017-08-25T18:58:45.014Z,18.51
2017-08-25T19:01:13.531Z,18.38
2017-08-25T19:03:42.004Z,18.38
2017-08-25T19:06:10.479Z,18.38
2017-08-25T19:08:38.978Z,18.31
2017-08-25T19:11:07.562Z,18.29
2017-08-25T19:13:36.005Z,18.24
2017-08-25T19:16:05.243Z,18.14
2017-08-25T19:18:33.726Z,18.11
2017-08-25T19:21:02.206Z,18.10
2017-08-25T19:23:30.675Z,18.04
2017-08-25T19:25:59.160Z,18.05
2017-08-25T19:28:27.649Z,18.03
2017-08-25T19:30:56.133Z,18.01
2017-08-25T19:33:24.708Z,17.96
2017-08-25T19:35:53.192Z,17.91
2017-08-25T19:38:21.666Z,17.84
2017-08-25T19:40:50.114Z,17.80
2017-08-25T19:43:18.568Z,17.69
2017-08-25T19:45:47.015Z,17.72
2017-08-25T19:48:15.507Z,17.69
2017-08-25T19:50:43.984Z,17.64
2017-08-25T19:53:12.453Z,17.65
2017-08-25T19:55:40.888Z,17.59
2017-08-25T19:58:09.435Z,17.48
2017-08-25T20:00:37.881Z,17.39
2017-08-25T20:03:06.337Z,17.32
2017-08-25T20:05:34.778Z,17.25
2017-08-25T20:08:03.246Z,17.17
2017-08-25T20:10:31.749Z,17.10
2017-08-25T20:13:00.295Z,17.10
2017-08-25T20:15:28.802Z,17.02
2017-08-25T20:17:57.389Z,17.01
2017-08-25T20:20:25.819Z,17.00
2017-08-25T20:22:54.432Z,16.89
2017-08-25T20:25:22.950Z,16.85
2017-08-25T20:27:51.572Z,16.83
2017-08-25T20:30:20.071Z,16.79
2017-08-25T20:32:49.400Z,16.75
2017-08-25T20:35:17.894Z,16.74
2017-08-25T20:37:46.374Z,16.74
2017-08-25T20:40:14.816Z,16.71
2017-08-25T20:42:43.328Z,16.75
2017-08-25T20:45:11.769Z,16.69
2017-08-25T20:47:40.296Z,16.68
2017-08-25T20:50:08.786Z,16.53
2017-08-25T20:52:37.256Z,16.50
2017-08-25T20:55:05.750Z,16.46
2017-08-25T20:57:34.235Z,16.44
2017-08-25T21:00:02.703Z,16.43
2017-08-25T21:02:31.131Z,16.39
2017-08-25T21:05:00.141Z,16.34
2017-08-25T21:07:29.224Z,16.38
2017-08-25T21:09:57.766Z,16.26
2017-08-25T21:12:26.209Z,16.29
2017-08-25T21:14:55.548Z,16.23
2017-08-25T21:17:23.999Z,16.24
2017-08-25T21:19:52.465Z,16.25
2017-08-25T21:22:20.983Z,16.15
2017-08-25T21:24:49.445Z,15.96
2017-08-25T21:27:17.964Z,15.87
2017-08-25T21:29:46.430Z,15.95
2017-08-25T21:32:14.921Z,15.82
2017-08-25T21:34:43.405Z,15.80
2017-08-25T21:37:11.849Z,15.77
2017-08-25T21:39:40.318Z,15.70
2017-08-25T21:42:08.840Z,15.72
2017-08-25T21:44:37.287Z,15.70
2017-08-25T21:47:05.804Z,15.71
2017-08-25T21:49:34.307Z,15.75
2017-08-25T21:52:02.783Z,15.70
2017-08-25T21:54:31.252Z,15.54
2017-08-25T21:56:59.693Z,15.46
2017-08-25T21:59:28.211Z,15.48
2017-08-25T22:01:56.712Z,15.52
2017-08-25T22:04:25.176Z,15.48
2017-08-25T22:06:53.648Z,15.42
2017-08-25T22:09:22.144Z,15.44
2017-08-25T22:11:50.596Z,15.46
2017-08-25T22:14:19.820Z,15.33
2017-08-25T22:16:48.281Z,15.36
2017-08-25T22:19:16.797Z,15.21
2017-08-25T22:21:45.257Z,15.19
2017-08-25T22:24:13.747Z,15.12
2017-08-25T22:26:42.236Z,15.11
2017-08-25T22:29:10.726Z,15.14
2017-08-25T22:31:39.310Z,15.10
2017-08-25T22:34:07.748Z,15.00
2017-08-25T22:36:36.275Z,15.03
2017-08-25T22:39:04.760Z,15.10
2017-08-25T22:41:33.327Z,15.03
2017-08-25T22:44:01.812Z,14.83
2017-08-25T22:46:30.283Z,14.78
2017-08-25T22:48:58.718Z,14.71
2017-08-25T22:51:27.167Z,14.76
2017-08-25T22:53:55.640Z,14.86
2017-08-25T22:56:24.116Z,14.83
2017-08-25T22:58:52.553Z,14.66
2017-08-25T23:01:22.665Z,14.68
2017-08-25T23:03:51.209Z,14.58
2017-08-25T23:06:19.649Z,14.51
2017-08-25T23:08:48.100Z,14.50
2017-08-25T23:11:16.546Z,14.54
2017-08-25T23:13:45.035Z,14.53
2017-08-25T23:16:13.507Z,14.50
2017-08-25T23:18:41.995Z,14.45
2017-08-25T23:21:10.437Z,14.50
2017-08-25T23:23:38.971Z,14.41
2017-08-25T23:26:07.449Z,14.30
2017-08-25T23:28:35.936Z,14.17
2017-08-25T23:31:04.417Z,14.11
2017-08-25T23:33:32.883Z,14.08
2017-08-25T23:36:01.364Z,14.08
2017-08-25T23:38:29.858Z,14.04
2017-08-25T23:40:58.346Z,14.00
2017-08-25T23:43:26.804Z,13.94
2017-08-25T23:45:55.291Z,13.95
2017-08-25T23:48:23.780Z,13.98
2017-08-25T23:50:52.265Z,13.96
2017-08-25T23:53:20.754Z,13.90
2017-08-25T23:55:49.220Z,13.90
2017-08-25T23:58:17.700Z,13.86
